الصفحة الرئيسية
METAR-TAF:

METAR-TAF

مطار :

شانغهاي-Pudong, جمهورية الصين الشعبية

مطار شانغهاي بودنغ الدولي

دائرة عرض: 31-07N, خط طول: 121-46E, ارتفاع: 4 متر

مراقبة الطقس الحالي

تاريخ ووقت الإصدار 10 دقيقة قبل الساعة 07:00UTC
ريح 8 عقدة من الشمال/الشمال الشرقي
درجة الحرارة 9°درجة مئوية
الرطوبة 76%
ضغط 1023 hPa
الرؤية: 3500 متر
ملبد بالغيوم على ارتفاع 1600 قدم
غشاء

METAR: ZSPD 190700Z 03004MPS 3500 BR OVC016 09/05 Q1023 NOSIG

زمن: 15:10 (07:10 UTC)

توقعات

تاريخ ووقت الإصدار 3ساعات و 50 دقيقة قبل الساعة 03:20UTC
التوقعات صالحة من19 الساعة 06 UTC إلى 20 الساعة 06 UTC
ريح 6 عقدة من الشمال
الرؤية: 3000 متر
غيوم مفككة على ارتفاع 1100 قدم
غشاء
أصبح
من 19 الساعة 18 UTC إلى 19 الساعة 20 UTC
الرؤية: 1500 متر
غيوم مفككة على ارتفاع 500 قدم
ملبد بالغيوم على ارتفاع 4000 قدم
غشاء
أصبح
من 20 الساعة 00 UTC إلى 20 الساعة 01 UTC
الرؤية: 3000 متر
غيوم مفككة على ارتفاع 1000 قدم
غشاء

TAF: ZSPD 190320Z 1906/2006 01003MPS 3000 BR BKN011 TX10/1906Z TN07/1921Z BECMG 1918/1920 1500 BR BKN005 OVC040 BECMG 2000/2001 3000 BR BKN010

أرصاد الطقس والتوقعات من أكثر من 4000 مطار (تقارير الطقس للمطار METAR والتنبؤ بالطقس بالمطارTAF).

المحطات المتاحة هي النقط الصفراء والحمراء على الخريطة.

حرك المؤشر فوق النقطة لمعرفة اسم المحطة.

ثم انقر لمعرفة أرصاد وتوقعات الطقس.

لتغيير الخارطة: اضغط على الأزرار الخضراء مع رمز الصليب الأسود للتكبير. على الزر الأخضر مع شرطة للتصغير، أو على الأسهم الخضراء للخرائط المجاورة.


METAR-TAF: